Weather reports worldwide

Advertisment
Dobbiaco, Italy (16033): temperature & dewpoint: 08.10.2019 14:00:00 - 14.10.2019 14:00:00 (CEST)Dobbiaco, Italy (16033): wind speed: 08.10.2019 14:00:00 - 14.10.2019 14:00:00 (CEST)Dobbiaco, Italy (16033): wind direction: 08.10.2019 14:00:00 - 14.10.2019 14:00:00 (CEST)Dobbiaco, Italy (16033): visibility: 08.10.2019 14:00:00 - 14.10.2019 14:00:00 (CEST)
Date & Time tt [°C] td [°C] ff [km/h] ff [kn] dd vv [km]
14.10.2019 14:00:00 - - - - - -
14.10.2019 13:00:00 13,0 7,0 0 0 N 10
14.10.2019 12:00:00 11,0 7,0 0 0 N 10
14.10.2019 11:00:00 9,4 6,8 0 0 N 25
14.10.2019 10:00:00 7,0 5,0 0 0 N 10
14.10.2019 09:00:00 6,0 4,0 0 0 N 10
14.10.2019 08:00:00 4,8 4,2 0 0 N 15
14.10.2019 07:00:00 - - - - - -
14.10.2019 06:00:00 - - - - - -
14.10.2019 05:00:00 - - - - - -
14.10.2019 04:00:00 - - - - - -
14.10.2019 03:00:00 - - - - - -
14.10.2019 02:00:00 - - - - - -
14.10.2019 01:00:00 - - - - - -
14.10.2019 00:00:00 - - - - - -
13.10.2019 23:00:00 - - - - - -
13.10.2019 22:00:00 - - - - - -
13.10.2019 21:00:00 - - - - - -
13.10.2019 20:00:00 10,4 7,8 0 0 N 12
13.10.2019 19:00:00 12,0 8,0 0 0 N 10
13.10.2019 18:00:00 13,0 5,0 0 0 N 10
13.10.2019 17:00:00 15,2 4,9 0 0 N 22
13.10.2019 16:00:00 16,0 5,0 0 0 N 10
13.10.2019 15:00:00 15,0 4,0 0 0 N 10
13.10.2019 14:00:00 14,0 5,9 0 0 N 25
13.10.2019 13:00:00 12,0 6,0 0 0 N 10
13.10.2019 12:00:00 10,0 5,0 0 0 N 10
13.10.2019 11:00:00 7,6 5,1 0 0 N 25
13.10.2019 10:00:00 5,0 4,0 0 0 N 10
13.10.2019 09:00:00 4,0 3,0 0 0 N 10
13.10.2019 08:00:00 3,0 2,7 0 0 N 18
13.10.2019 07:00:00 - - - - - -
13.10.2019 06:00:00 - - - - - -
13.10.2019 05:00:00 - - - - - -
13.10.2019 04:00:00 - - - - - -
13.10.2019 03:00:00 - - - - - -
13.10.2019 02:00:00 - - - - - -
13.10.2019 01:00:00 - - - - - -
13.10.2019 00:00:00 - - - - - -
12.10.2019 23:00:00 - - - - - -
12.10.2019 22:00:00 - - - - - -
12.10.2019 21:00:00 - - - - - -
12.10.2019 20:00:00 10,0 6,5 0 0 N 12
12.10.2019 19:00:00 11,0 7,0 - - - 10
12.10.2019 18:00:00 13,0 7,0 - - - 10
12.10.2019 17:00:00 14,4 3,5 0 0 N 25
12.10.2019 16:00:00 15,0 1,0 - - - 10
12.10.2019 15:00:00 15,0 0,0 - - - 10
12.10.2019 14:00:00 13,8 1,4 4 2 W 25
12.10.2019 13:00:00 12,0 4,0 - - - 10
12.10.2019 12:00:00 10,0 4,0 - - - 10
12.10.2019 11:00:00 7,2 3,4 4 2 W 25
12.10.2019 10:00:00 5,0 4,0 - - - 10
12.10.2019 09:00:00 3,0 2,0 - - - 10
12.10.2019 08:00:00 2,0 1,6 0 0 N 20
12.10.2019 07:00:00 - - - - - -
12.10.2019 06:00:00 - - - - - -
12.10.2019 05:00:00 - - - - - -
12.10.2019 04:00:00 - - - - - -
12.10.2019 03:00:00 - - - - - -
12.10.2019 02:00:00 - - - - - -
12.10.2019 01:00:00 - - - - - -
12.10.2019 00:00:00 - - - - - -
11.10.2019 23:00:00 - - - - - -
11.10.2019 22:00:00 - - - - - -
11.10.2019 21:00:00 - - - - - -
11.10.2019 20:00:00 7,2 4,0 0 0 N 18
11.10.2019 19:00:00 8,0 4,0 - - - 10
11.10.2019 18:00:00 10,0 5,0 - - - 10
11.10.2019 17:00:00 13,6 2,2 0 0 N 30
11.10.2019 16:00:00 14,0 0,0 5 3 - 10
11.10.2019 15:00:00 14,0 -1,0 - - - 10
11.10.2019 14:00:00 11,8 0,3 0 0 N 30
11.10.2019 13:00:00 11,0 -2,0 - - - 10
11.10.2019 12:00:00 7,0 2,0 - - - 10
11.10.2019 11:00:00 5,6 2,4 0 0 N 30
11.10.2019 10:00:00 4,0 3,0 - - - 10
11.10.2019 09:00:00 7,0 6,0 - - - 10
11.10.2019 08:00:00 0,2 -0,9 0 0 N 30
11.10.2019 07:00:00 - - - - - -
11.10.2019 06:00:00 - - - - - -
11.10.2019 05:00:00 - - - - - -
11.10.2019 04:00:00 - - - - - -
11.10.2019 03:00:00 - - - - - -
11.10.2019 02:00:00 - - - - - -
11.10.2019 01:00:00 - - - - - -
11.10.2019 00:00:00 - - - - - -
10.10.2019 23:00:00 - - - - - -
10.10.2019 22:00:00 - - - - - -
10.10.2019 21:00:00 - - - - - -
10.10.2019 20:00:00 5,6 3,3 0 0 N 18
10.10.2019 19:00:00 8,0 4,0 - - - 10
10.10.2019 18:00:00 8,0 3,0 - - - 10
10.10.2019 17:00:00 10,9 1,2 0 0 N 30
10.10.2019 16:00:00 12,0 2,0 5 3 - 10
10.10.2019 15:00:00 11,0 5,0 4 2 - 10
10.10.2019 14:00:00 10,1 4,9 0 0 N 20
10.10.2019 13:00:00 10,0 6,0 2 1 - 10
10.10.2019 12:00:00 8,0 5,0 4 2 - 10
10.10.2019 11:00:00 7,6 3,7 2 1 - 9
10.10.2019 10:00:00 7,0 5,0 - - - 9
10.10.2019 09:00:00 7,0 5,0 5 3 - 9
10.10.2019 08:00:00 6,4 5,2 0 0 N 8
10.10.2019 07:00:00 - - - - - -
10.10.2019 06:00:00 - - - - - -
10.10.2019 05:00:00 - - - - - -
10.10.2019 04:00:00 - - - - - -
10.10.2019 03:00:00 - - - - - -
10.10.2019 02:00:00 - - - - - -
10.10.2019 01:00:00 - - - - - -
10.10.2019 00:00:00 - - - - - -
09.10.2019 23:00:00 - - - - - -
09.10.2019 22:00:00 - - - - - -
09.10.2019 21:00:00 - - - - - -
09.10.2019 20:00:00 11,5 10,7 0 0 N 5
09.10.2019 19:00:00 9,0 8,0 - - - 5
09.10.2019 18:00:00 - - - - - -
09.10.2019 17:00:00 9,0 6,3 5 3 E 10
09.10.2019 16:00:00 9,0 4,0 5 3 - 10
09.10.2019 15:00:00 10,0 6,0 - - - 9
09.10.2019 14:00:00 10,2 5,2 0 0 N 80
09.10.2019 13:00:00 10,0 5,0 - - - 9
09.10.2019 12:00:00 10,0 3,0 - - - 8
09.10.2019 11:00:00 9,4 5,2 0 0 N 80
09.10.2019 10:00:00 8,0 6,0 - - - 8
09.10.2019 09:00:00 8,0 6,0 - - - 7
09.10.2019 08:00:00 7,5 5,1 0 0 N 10
09.10.2019 07:00:00 - - - - - -
09.10.2019 06:00:00 - - - - - -
09.10.2019 05:00:00 - - - - - -
09.10.2019 04:00:00 - - - - - -
09.10.2019 03:00:00 - - - - - -
09.10.2019 02:00:00 - - - - - -
09.10.2019 01:00:00 - - - - - -
09.10.2019 00:00:00 - - - - - -
08.10.2019 23:00:00 - - - - - -
08.10.2019 22:00:00 - - - - - -
08.10.2019 21:00:00 - - - - - -
08.10.2019 20:00:00 9,4 5,8 0 0 N 12
08.10.2019 19:00:00 11,0 6,0 0 0 N 10
08.10.2019 18:00:00 13,0 5,0 0 0 N 10
08.10.2019 17:00:00 14,2 2,1 0 0 N 35
08.10.2019 16:00:00 14,0 1,0 0 0 N 10
08.10.2019 15:00:00 14,0 0,0 0 0 N 10
08.10.2019 14:00:00 12,4 1,1 0 0 N 35

tt = temperature
td = dewpoint
ff = wind speed
dd = wind direction
vv = visibility

Next stations